Time;durP1;ratioP1;P1;durP2;ratioP2;P2;SDS_P1;SDS_P2;PMS_P1;PMS_P2;Temp;Humidity;BMP_temperature;BMP_pressure;BME280_temperature;BME280_humidity;BME280_pressure;Samples;Min_cycle;Max_cycle;Signal;HPM_P1;HPM_P2
2022/12/31 00:02:21;;;;;;;21.98;11.40;;;;;;;3.52;100.00;101712.81;4916361;29;20402;-82
2022/12/31 00:04:46;;;;;;;18.55;11.30;;;;;;;3.07;100.00;101711.53;4916308;29;20533;-77
2022/12/31 00:07:11;;;;;;;27.35;11.00;;;;;;;3.05;100.00;101731.81;4916354;29;20577;-77
2022/12/31 00:09:37;;;;;;;29.38;12.27;;;;;;;2.41;100.00;101669.25;4933502;29;20024;-76
2022/12/31 00:12:03;;;;;;;38.78;12.50;;;;;;;2.63;100.00;101742.56;4933201;29;20035;-77
2022/12/31 00:14:28;;;;;;;101.85;14.32;;;;;;;2.73;100.00;101737.50;4933318;29;20038;-77
2022/12/31 00:16:54;;;;;;;35.42;13.18;;;;;;;2.88;100.00;101730.31;4933150;29;20086;-73
2022/12/31 00:19:19;;;;;;;43.25;13.43;;;;;;;2.69;100.00;101730.34;4933080;29;20036;-74
2022/12/31 00:21:44;;;;;;;30.13;11.77;;;;;;;2.32;100.00;101719.41;4932952;29;20046;-76
2022/12/31 00:24:10;;;;;;;32.58;10.93;;;;;;;2.05;100.00;101731.41;4874262;29;20041;-77
2022/12/31 00:26:37;;;;;;;48.83;12.57;;;;;;;1.68;100.00;101679.66;4873925;29;20439;-76
2022/12/31 00:29:03;;;;;;;33.17;12.95;;;;;;;2.04;100.00;101731.28;4873922;29;20044;-77
2022/12/31 00:31:34;;;;;;;33.65;12.57;;;;;;;1.99;100.00;101724.88;4874108;29;20077;-76
2022/12/31 00:34:00;;;;;;;33.10;13.10;;;;;;;1.97;100.00;101724.75;4873189;29;20144;-76
2022/12/31 00:36:28;;;;;;;40.28;12.20;;;;;;;1.99;100.00;101725.75;4867335;29;20120;-77
2022/12/31 00:38:56;;;;;;;35.60;12.30;;;;;;;1.92;100.00;101718.34;4857045;29;20093;-73
2022/12/31 00:41:22;;;;;;;58.50;13.85;;;;;;;2.05;100.00;101748.38;4837285;29;20041;-78
2022/12/31 00:43:48;;;;;;;81.82;16.48;;;;;;;2.34;100.00;101747.56;4860102;29;20065;-76
2022/12/31 00:46:15;;;;;;;48.25;13.55;;;;;;;2.49;100.00;101748.94;4872660;29;20037;-76
2022/12/31 00:48:41;;;;;;;31.88;12.43;;;;;;;2.42;100.00;101750.06;4858672;29;20090;-76
2022/12/31 00:51:08;;;;;;;58.25;14.95;;;;;;;2.46;100.00;101748.69;4858497;29;20064;-76
2022/12/31 00:53:35;;;;;;;54.00;14.73;;;;;;;2.44;100.00;101714.50;4874130;29;20040;-75
2022/12/31 00:56:10;;;;;;;86.35;16.13;;;;;;;2.84;100.00;101752.84;4874063;29;20048;-77
2022/12/31 00:58:36;;;;;;;32.92;15.27;;;;;;;2.79;100.00;101749.00;4873827;29;20069;-76
2022/12/31 01:01:15;;;;;;;59.22;14.00;;;;;;;2.74;100.00;101736.75;4889482;29;20044;-74
2022/12/31 01:03:41;;;;;;;38.57;13.87;;;;;;;2.96;100.00;101755.63;4932704;29;20038;-76
2022/12/31 01:06:07;;;;;;;65.05;14.93;;;;;;;2.95;100.00;101734.28;4932997;29;20276;-76
2022/12/31 01:08:32;;;;;;;94.20;14.90;;;;;;;3.13;100.00;101751.97;4915498;29;20410;-76
2022/12/31 01:13:43;;;;;;;32.75;12.85;;;;;;;3.07;100.00;101743.03;4933003;29;20043;-76
2022/12/31 01:16:11;;;;;;;88.13;15.45;;;;;;;3.13;100.00;101746.88;4933039;29;20020;-75
2022/12/31 01:18:36;;;;;;;68.20;15.52;;;;;;;3.19;100.00;101749.97;4915613;29;20035;-78
2022/12/31 01:21:05;;;;;;;79.85;16.98;;;;;;;3.36;100.00;101751.44;4915822;29;20023;-77
2022/12/31 01:23:31;;;;;;;71.18;15.82;;;;;;;3.42;100.00;101746.88;4915744;29;20027;-77
2022/12/31 01:26:00;;;;;;;74.43;14.85;;;;;;;3.46;100.00;101731.03;4932428;29;20502;-77
2022/12/31 01:28:26;;;;;;;83.72;15.70;;;;;;;3.33;100.00;101701.00;4932788;29;20031;-77
2022/12/31 01:30:51;;;;;;;76.03;15.10;;;;;;;3.54;100.00;101745.38;4915752;29;20024;-77
2022/12/31 01:33:17;;;;;;;87.78;13.45;;;;;;;3.49;100.00;101736.41;4932829;29;20511;-77
2022/12/31 01:35:42;;;;;;;61.40;12.88;;;;;;;3.53;100.00;101747.78;4933001;29;20179;-77
2022/12/31 01:38:08;;;;;;;100.95;14.07;;;;;;;3.64;100.00;101764.00;4932921;29;20032;-76
2022/12/31 01:40:37;;;;;;;84.38;14.38;;;;;;;3.57;100.00;101752.38;4932368;29;20031;-76
2022/12/31 01:43:11;;;;;;;;;;;;;;;3.62;100.00;101756.22;4933236;29;20031;-76
2022/12/31 01:45:40;;;;;;;34.35;12.05;;;;;;;3.43;100.00;101747.75;4936520;29;19980;-77
2022/12/31 01:48:09;;;;;;;54.53;12.30;;;;;;;3.23;100.00;101737.59;4936068;29;20039;-77
2022/12/31 01:50:38;;;;;;;32.15;10.95;;;;;;;3.21;100.00;101745.91;4936256;29;20035;-77
2022/12/31 01:53:06;;;;;;;70.18;12.93;;;;;;;3.08;100.00;101732.06;4935875;29;20039;-77
2022/12/31 01:55:31;;;;;;;62.58;12.95;;;;;;;3.14;100.00;101748.66;4935908;29;20114;-77
2022/12/31 01:58:04;;;;;;;48.55;12.88;;;;;;;3.14;100.00;101759.78;4936200;29;20102;-77
2022/12/31 02:00:30;;;;;;;40.05;11.75;;;;;;;3.11;100.00;101767.16;4936133;29;20391;-77
2022/12/31 02:02:56;;;;;;;29.40;12.55;;;;;;;3.12;100.00;101755.31;4936113;29;20475;-77
2022/12/31 02:05:38;;;;;;;53.35;13.32;;;;;;;3.05;100.00;101749.66;4935732;29;20024;-77
2022/12/31 02:08:05;;;;;;;53.78;13.75;;;;;;;3.08;100.00;101749.03;4935684;29;20076;-77
2022/12/31 02:10:31;;;;;;;38.13;13.35;;;;;;;3.16;100.00;101755.69;4935783;29;20032;-77
2022/12/31 02:12:56;;;;;;;30.90;11.68;;;;;;;2.89;100.00;101721.91;4918359;29;20039;-77
2022/12/31 02:15:47;;;;;;;28.08;12.43;;;;;;;3.13;100.00;101763.09;4935784;29;20503;-77
2022/12/31 02:18:29;;;;;;;20.80;10.40;;;;;;;2.97;100.00;101750.63;4839494;29;20493;-77
2022/12/31 02:21:06;;;;;;;38.70;13.45;;;;;;;3.07;100.00;101755.78;4839362;29;20042;-77
2022/12/31 02:23:35;;;;;;;62.00;13.32;;;;;;;3.03;100.00;101770.72;4839200;29;20041;-77
2022/12/31 02:26:24;;;;;;;58.40;13.65;;;;;;;3.02;100.00;101764.69;4823684;29;20026;-77
2022/12/31 02:29:20;;;;;;;57.08;13.10;;;;;;;3.05;100.00;101775.19;4839077;29;20073;-78
2022/12/31 02:31:53;;;;;;;37.80;12.43;;;;;;;3.02;100.00;101769.78;4839185;29;20038;-77
2022/12/31 02:34:25;;;;;;;36.63;12.23;;;;;;;2.89;100.00;101739.78;4839417;29;20589;-77
2022/12/31 02:36:53;;;;;;;53.42;11.63;;;;;;;2.85;100.00;101734.25;4823600;29;20524;-77
2022/12/31 02:39:20;;;;;;;27.43;11.47;;;;;;;2.82;100.00;101709.38;4839091;29;20041;-77
2022/12/31 02:41:50;;;;;;;44.15;11.75;;;;;;;3.05;100.00;101767.53;4839337;29;20129;-77
2022/12/31 02:44:30;;;;;;;27.27;11.70;;;;;;;2.88;100.00;101752.41;4823723;29;20117;-78
2022/12/31 02:47:08;;;;;;;29.67;11.32;;;;;;;2.82;100.00;101754.41;4820201;29;20068;-78
2022/12/31 02:49:58;;;;;;;51.03;13.45;;;;;;;2.86;100.00;101759.00;4820630;29;20461;-78
2022/12/31 02:52:29;;;;;;;70.97;13.30;;;;;;;2.84;100.00;101763.06;4809100;29;20091;-78
2022/12/31 02:55:24;;;;;;;46.42;14.00;;;;;;;2.65;100.00;101722.28;4849744;29;20511;-78
2022/12/31 02:58:02;;;;;;;23.83;12.02;;;;;;;2.91;100.00;101767.94;4913692;29;20040;-78
2022/12/31 03:03:18;;;;;;;35.53;13.13;;;;;;;2.83;100.00;101768.91;4913502;29;20047;-78
2022/12/31 03:05:47;;;;;;;34.83;13.82;;;;;;;2.91;100.00;101771.38;4897193;29;20032;-77
2022/12/31 03:08:20;;;;;;;48.05;13.35;;;;;;;2.91;100.00;101779.03;4913177;29;20050;-78
2022/12/31 03:10:46;;;;;;;47.20;13.05;;;;;;;2.91;100.00;101768.84;4897161;29;20047;-78
2022/12/31 03:13:11;;;;;;;33.67;12.43;;;;;;;2.73;100.00;101770.66;4912896;29;20048;-78
2022/12/31 03:15:37;;;;;;;24.02;10.25;;;;;;;2.73;100.00;101770.66;4913405;29;20463;-78
2022/12/31 03:18:10;;;;;;;52.97;14.55;;;;;;;2.77;100.00;101778.56;4922596;29;20107;-79
2022/12/31 03:23:27;;;;;;;;;;;;;;;2.76;100.00;101782.78;4932714;29;20047;-78
2022/12/31 03:25:53;;;;;;;32.20;12.10;;;;;;;2.60;100.00;101762.66;4931714;28;19973;-78
2022/12/31 03:28:22;;;;;;;34.67;12.05;;;;;;;2.59;100.00;101773.63;4932261;29;20048;-78
2022/12/31 03:30:51;;;;;;;28.50;12.35;;;;;;;2.62;100.00;101780.63;4931277;29;20036;-77
2022/12/31 03:33:17;;;;;;;45.17;12.63;;;;;;;2.64;100.00;101776.59;4915531;29;20044;-77
2022/12/31 03:35:45;;;;;;;29.00;12.40;;;;;;;2.25;100.00;101691.56;4915731;29;20048;-78
2022/12/31 03:38:10;;;;;;;53.05;12.07;;;;;;;2.53;100.00;101747.56;4931809;29;20036;-77
2022/12/31 03:40:39;;;;;;;18.25;10.65;;;;;;;2.75;100.00;101770.78;4912564;29;20040;-78
2022/12/31 03:43:05;;;;;;;17.27;10.50;;;;;;;2.48;100.00;101748.81;4897172;29;20048;-77
2022/12/31 03:45:30;;;;;;;27.17;10.60;;;;;;;2.51;100.00;101772.94;4912201;29;20487;-77
2022/12/31 03:47:56;;;;;;;39.38;11.63;;;;;;;2.48;100.00;101756.47;4911825;29;20036;-78
2022/12/31 03:50:21;;;;;;;60.53;12.43;;;;;;;2.63;100.00;101779.88;4893360;29;20053;-78
2022/12/31 03:52:47;;;;;;;37.88;11.32;;;;;;;2.70;100.00;101778.03;4893496;29;20487;-77
2022/12/31 03:55:13;;;;;;;60.75;12.70;;;;;;;2.79;100.00;101785.63;4893457;29;20040;-78
2022/12/31 03:57:39;;;;;;;70.78;12.57;;;;;;;2.64;100.00;101794.44;4893585;29;20040;-77
2022/12/31 04:00:08;;;;;;;35.40;11.82;;;;;;;2.68;100.00;101792.31;4892945;29;20036;-78
2022/12/31 04:02:33;;;;;;;44.58;12.55;;;;;;;2.72;100.00;101785.84;4877823;29;20148;-78
2022/12/31 04:04:59;;;;;;;88.18;12.13;;;;;;;2.68;100.00;101793.94;4894039;29;20127;-78
2022/12/31 04:07:24;;;;;;;78.78;13.13;;;;;;;2.74;100.00;101797.97;4892399;29;20519;-78
2022/12/31 04:09:49;;;;;;;81.18;13.30;;;;;;;2.47;100.00;101765.78;4893205;29;20033;-78
2022/12/31 04:12:15;;;;;;;68.78;12.15;;;;;;;2.59;100.00;101778.72;4924134;29;20036;-78
2022/12/31 04:14:40;;;;;;;78.45;12.45;;;;;;;2.67;100.00;101790.50;4932973;29;20024;-78
2022/12/31 04:17:06;;;;;;;64.55;11.98;;;;;;;2.75;100.00;101796.28;4916759;29;20118;-77
2022/12/31 04:19:31;;;;;;;36.05;10.95;;;;;;;2.79;100.00;101792.38;4916443;29;20036;-78
2022/12/31 04:21:57;;;;;;;20.30;9.75;;;;;;;2.81;100.00;101785.75;4933755;29;20032;-76
2022/12/31 04:24:22;;;;;;;20.17;9.90;;;;;;;2.63;100.00;101777.34;4916340;29;20406;-77
2022/12/31 04:26:48;;;;;;;34.45;9.88;;;;;;;2.65;100.00;101797.13;4933381;29;20090;-77
2022/12/31 04:29:14;;;;;;;50.97;11.98;;;;;;;2.59;100.00;101797.47;4915618;29;20036;-76
2022/12/31 04:31:39;;;;;;;53.85;11.80;;;;;;;2.70;100.00;101803.53;4933073;29;20035;-78
2022/12/31 04:34:05;;;;;;;82.78;13.60;;;;;;;2.38;100.00;101783.69;4931471;29;20052;-77
2022/12/31 04:36:31;;;;;;;72.15;12.15;;;;;;;2.50;100.00;101796.63;4933009;29;20056;-77
2022/12/31 04:38:56;;;;;;;65.10;12.65;;;;;;;2.61;100.00;101810.34;4933198;29;20479;-77
2022/12/31 04:41:22;;;;;;;72.20;11.32;;;;;;;2.59;100.00;101809.31;4931539;29;20035;-77
2022/12/31 04:43:56;;;;;;;62.90;11.27;;;;;;;2.38;100.00;101798.97;4963830;28;20568;-77
2022/12/31 04:46:29;;;;;;;52.15;12.10;;;;;;;2.20;100.00;101782.00;4952341;28;20460;-77
2022/12/31 04:48:56;;;;;;;46.95;11.35;;;;;;;2.46;100.00;101802.22;4952393;28;20514;-77
2022/12/31 04:51:23;;;;;;;83.20;13.07;;;;;;;2.57;100.00;101819.38;4952459;28;20125;-77
2022/12/31 04:53:49;;;;;;;65.32;11.60;;;;;;;2.52;100.00;101820.63;4968410;28;20039;-77
2022/12/31 04:56:15;;;;;;;32.72;10.88;;;;;;;2.23;100.00;101829.03;4958967;28;20187;-77
2022/12/31 04:58:41;;;;;;;27.60;10.57;;;;;;;1.97;100.00;101834.25;4954445;28;20049;-77
2022/12/31 05:01:07;;;;;;;32.67;10.30;;;;;;;1.65;100.00;101839.75;4949353;28;20035;-77
2022/12/31 05:03:34;;;;;;;24.02;10.52;;;;;;;1.44;100.00;101829.31;4949104;28;20491;-77
2022/12/31 05:06:20;;;;;;;24.92;10.38;;;;;;;1.54;100.00;101836.19;4933022;29;20410;-77
2022/12/31 05:08:46;;;;;;;27.90;10.45;;;;;;;1.58;100.00;101850.09;4930191;29;20059;-76
2022/12/31 05:11:12;;;;;;;43.47;10.82;;;;;;;1.25;100.00;101785.06;4914161;29;20043;-77
2022/12/31 05:13:38;;;;;;;23.17;9.85;;;;;;;1.70;100.00;101853.81;4914016;29;20070;-76
2022/12/31 05:16:04;;;;;;;36.00;10.77;;;;;;;1.86;100.00;101848.53;4908461;29;20507;-77
2022/12/31 05:18:30;;;;;;;37.28;10.93;;;;;;;1.91;100.00;101844.75;4915113;29;20046;-75
2022/12/31 05:20:56;;;;;;;37.00;11.48;;;;;;;1.91;100.00;101847.31;4934212;29;20036;-75
2022/12/31 05:23:22;;;;;;;34.33;11.18;;;;;;;1.92;100.00;101841.47;4917801;29;20079;-75
2022/12/31 05:25:47;;;;;;;46.58;12.90;;;;;;;1.96;100.00;101857.00;4933997;29;20039;-77
2022/12/31 05:28:14;;;;;;;44.38;12.65;;;;;;;1.82;100.00;101813.34;4934093;29;20115;-74
2022/12/31 05:30:39;;;;;;;43.13;12.43;;;;;;;2.09;100.00;101853.25;4933329;29;20028;-76
2022/12/31 05:33:05;;;;;;;49.25;12.65;;;;;;;1.93;100.00;101830.53;4933628;29;20052;-76
2022/12/31 05:35:30;;;;;;;32.50;12.55;;;;;;;2.17;100.00;101858.13;4933622;29;20055;-75
2022/12/31 05:37:55;;;;;;;27.73;11.88;;;;;;;1.91;100.00;101798.03;4933347;29;20054;-76
2022/12/31 05:40:21;;;;;;;26.77;13.30;;;;;;;2.30;100.00;101848.31;4929584;29;20040;-76
2022/12/31 05:42:48;;;;;;;28.95;12.80;;;;;;;2.19;100.00;101813.31;4936456;29;20470;-76
2022/12/31 05:45:14;;;;;;;32.47;11.48;;;;;;;2.36;100.00;101846.34;4942139;29;20039;-76
2022/12/31 05:47:41;;;;;;;38.55;11.93;;;;;;;2.41;100.00;101841.69;4936377;28;20020;-76
2022/12/31 05:50:08;;;;;;;29.10;11.65;;;;;;;2.06;100.00;101788.38;4936182;29;20028;-75
2022/12/31 05:52:35;;;;;;;41.55;12.68;;;;;;;2.44;100.00;101859.78;4934761;28;20526;-76
2022/12/31 05:55:01;;;;;;;44.17;12.15;;;;;;;2.11;100.00;101815.16;4936179;29;20032;-76
2022/12/31 05:57:26;;;;;;;36.47;12.05;;;;;;;2.23;100.00;101869.81;4936299;29;20138;-76
2022/12/31 05:59:52;;;;;;;27.08;12.20;;;;;;;2.20;100.00;101850.78;4936196;29;20031;-75
2022/12/31 06:02:19;;;;;;;31.27;12.43;;;;;;;2.31;100.00;101859.44;4936354;29;20039;-76
2022/12/31 06:04:44;;;;;;;34.65;12.90;;;;;;;2.39;100.00;101863.56;4934782;28;22545;-76
2022/12/31 06:07:10;;;;;;;51.88;17.17;;;;;;;2.25;100.00;101854.66;4934239;29;20038;-76
2022/12/31 06:09:35;;;;;;;40.15;13.07;;;;;;;2.32;100.00;101861.19;4934749;29;20118;-76
2022/12/31 06:12:00;;;;;;;28.75;12.85;;;;;;;2.25;100.00;101839.38;4935827;29;20032;-76
2022/12/31 06:14:26;;;;;;;51.05;13.27;;;;;;;2.30;100.00;101878.91;4935696;29;20027;-76
2022/12/31 06:16:51;;;;;;;39.95;12.80;;;;;;;2.39;100.00;101892.53;4936155;29;20035;-75
2022/12/31 06:19:17;;;;;;;26.75;12.30;;;;;;;2.45;100.00;101901.50;4934464;29;20027;-75
2022/12/31 06:21:42;;;;;;;35.15;12.68;;;;;;;2.49;100.00;101899.34;4935949;29;20036;-75
2022/12/31 06:24:07;;;;;;;27.10;12.18;;;;;;;2.46;100.00;101893.97;4935436;29;20042;-75
2022/12/31 06:26:33;;;;;;;22.77;13.82;;;;;;;2.54;100.00;101882.84;4934194;28;20024;-75
2022/12/31 06:28:58;;;;;;;31.17;16.38;;;;;;;2.58;100.00;101890.00;4935485;29;20106;-75
2022/12/31 06:31:23;;;;;;;29.92;16.70;;;;;;;2.68;100.00;101904.50;4934524;29;20509;-75
2022/12/31 06:33:49;;;;;;;58.03;28.67;;;;;;;2.68;100.00;101894.31;4951097;28;20059;-76
2022/12/31 06:36:15;;;;;;;37.80;15.15;;;;;;;2.55;100.00;101882.06;4937018;28;20027;-76
2022/12/31 06:38:42;;;;;;;28.42;14.73;;;;;;;2.69;100.00;101911.41;4954841;28;20063;-77
2022/12/31 06:41:11;;;;;;;36.28;19.33;;;;;;;2.73;100.00;101923.66;4954471;28;20057;-76
2022/12/31 06:43:38;;;;;;;50.50;17.83;;;;;;;2.81;100.00;101920.94;4954046;28;20059;-75
2022/12/31 06:46:05;;;;;;;52.15;20.45;;;;;;;2.89;100.00;101919.97;4954215;28;20027;-75
2022/12/31 06:48:32;;;;;;;46.70;16.23;;;;;;;2.90;100.00;101916.66;4954200;28;20035;-76
2022/12/31 06:51:09;;;;;;;45.30;15.98;;;;;;;2.81;100.00;101914.16;4954091;28;20035;-76
2022/12/31 06:53:35;;;;;;;35.70;13.52;;;;;;;2.75;100.00;101911.06;4953869;28;20030;-76
2022/12/31 06:56:09;;;;;;;35.92;15.43;;;;;;;2.69;100.00;101895.19;4954121;28;20387;-76
2022/12/31 06:58:35;;;;;;;30.45;16.30;;;;;;;2.95;100.00;101929.84;4953889;28;20100;-77
2022/12/31 07:01:11;;;;;;;23.52;11.65;;;;;;;2.86;100.00;101930.78;4954152;28;20038;-76
2022/12/31 07:03:45;;;;;;;29.77;12.02;;;;;;;2.77;100.00;101927.41;4936514;28;20387;-77
2022/12/31 07:06:39;;;;;;;21.38;12.32;;;;;;;2.65;100.00;101929.69;4953800;28;20398;-77
2022/12/31 07:09:20;;;;;;;36.38;12.70;;;;;;;2.57;100.00;101918.81;4954123;28;20038;-77
2022/12/31 07:12:00;;;;;;;25.42;12.80;;;;;;;2.55;100.00;101904.13;4953831;28;20055;-76
2022/12/31 07:14:36;;;;;;;18.33;11.07;;;;;;;2.71;100.00;101947.25;4936672;28;20035;-76
2022/12/31 07:17:32;;;;;;;22.77;12.15;;;;;;;2.46;100.00;101934.75;4953794;28;20482;-76
2022/12/31 07:20:06;;;;;;;28.77;12.90;;;;;;;2.64;100.00;101947.41;4935378;28;20047;-76
2022/12/31 07:22:31;;;;;;;36.28;11.95;;;;;;;2.70;100.00;101946.31;4953342;28;20031;-76
2022/12/31 07:24:57;;;;;;;43.47;12.80;;;;;;;2.75;100.00;101947.66;4936602;28;20034;-76
2022/12/31 07:27:29;;;;;;;58.92;14.45;;;;;;;2.84;100.00;101945.06;4953469;28;20041;-76
2022/12/31 07:30:18;;;;;;;41.22;13.93;;;;;;;2.85;100.00;101954.47;4936142;28;20565;-76
2022/12/31 07:32:58;;;;;;;51.13;17.40;;;;;;;2.79;100.00;101970.88;4953075;28;20039;-75
2022/12/31 07:35:52;;;;;;;75.07;15.48;;;;;;;2.53;100.00;101980.47;4953239;28;20146;-75
2022/12/31 07:38:23;;;;;;;77.43;14.43;;;;;;;2.37;100.00;101965.38;4953649;28;20034;-76
2022/12/31 07:40:55;;;;;;;52.17;17.90;;;;;;;2.53;100.00;101977.00;4952478;28;20406;-76
2022/12/31 07:43:52;;;;;;;35.33;14.27;;;;;;;2.59;100.00;101969.94;4935983;28;20043;-74
2022/12/31 07:46:23;;;;;;;21.83;12.27;;;;;;;2.54;100.00;101966.97;4953104;28;20031;-74
2022/12/31 07:48:49;;;;;;;29.80;12.38;;;;;;;2.56;100.00;101970.53;4935979;28;20027;-74
2022/12/31 07:51:14;;;;;;;25.45;12.80;;;;;;;2.54;100.00;101966.06;4953344;28;20089;-74
2022/12/31 07:53:40;;;;;;;32.78;12.40;;;;;;;2.48;100.00;101958.75;4952766;28;20400;-74
2022/12/31 07:56:08;;;;;;;48.05;13.65;;;;;;;2.63;100.00;101966.00;4935829;28;20129;-74
2022/12/31 07:58:57;;;;;;;47.92;14.07;;;;;;;2.58;100.00;101953.75;4953089;28;20019;-74
2022/12/31 08:01:33;;;;;;;59.95;16.30;;;;;;;2.80;100.00;101971.03;4952758;28;20027;-76
2022/12/31 08:04:15;;;;;;;74.20;16.60;;;;;;;2.95;100.00;101969.00;4952753;28;20050;-75
2022/12/31 08:07:02;;;;;;;28.33;14.88;;;;;;;2.80;100.00;101944.63;4935595;28;20486;-75
2022/12/31 08:09:59;;;;;;;45.83;15.30;;;;;;;2.92;100.00;101974.72;4935528;28;20508;-75
2022/12/31 08:12:30;;;;;;;29.85;15.32;;;;;;;2.55;100.00;101907.56;4952658;28;20035;-75
2022/12/31 08:14:55;;;;;;;47.85;15.05;;;;;;;2.98;100.00;101976.94;4952754;28;20071;-74
2022/12/31 08:17:21;;;;;;;49.45;17.45;;;;;;;2.84;100.00;101942.50;4952805;28;20063;-74
2022/12/31 08:19:46;;;;;;;70.18;18.83;;;;;;;3.02;100.00;101962.81;4952349;28;20027;-75
2022/12/31 08:22:25;;;;;;;75.20;18.25;;;;;;;3.16;100.00;101976.81;4912051;29;20155;-74
2022/12/31 08:25:24;;;;;;;66.93;21.97;;;;;;;3.23;100.00;101979.19;4912143;29;20514;-74
2022/12/31 08:28:09;;;;;;;96.85;23.35;;;;;;;3.09;100.00;101932.00;4911275;29;20264;-74
2022/12/31 08:30:39;;;;;;;61.55;20.27;;;;;;;3.30;100.00;101961.13;4911781;29;20499;-74
2022/12/31 08:33:38;;;;;;;97.40;23.58;;;;;;;3.30;100.00;101971.34;4911511;29;20215;-74
2022/12/31 08:36:15;;;;;;;48.42;22.92;;;;;;;3.39;100.00;101961.06;4911725;29;20404;-74
2022/12/31 08:38:47;;;;;;;46.33;24.13;;;;;;;3.36;100.00;101959.09;4911424;29;20040;-75
2022/12/31 08:41:18;;;;;;;62.05;21.23;;;;;;;3.33;100.00;101980.91;4911377;29;20384;-74
2022/12/31 08:44:07;;;;;;;49.50;22.92;;;;;;;3.23;100.00;101966.41;4911682;29;20040;-74
2022/12/31 08:46:39;;;;;;;55.97;21.13;;;;;;;3.41;100.00;101967.16;4911621;29;20120;-74
2022/12/31 08:49:08;;;;;;;49.80;22.60;;;;;;;3.45;100.00;101956.50;4911681;29;20043;-74
2022/12/31 08:51:34;;;;;;;48.67;23.08;;;;;;;2.97;100.00;101887.53;4911196;29;20038;-74
2022/12/31 08:53:59;;;;;;;47.33;23.52;;;;;;;3.40;100.00;101952.59;4944170;28;20031;-73
2022/12/31 08:56:33;;;;;;;44.53;22.23;;;;;;;3.43;100.00;101962.19;4952360;28;20034;-74
2022/12/31 08:59:14;;;;;;;42.92;23.75;;;;;;;3.49;100.00;101962.75;4934815;28;20023;-73
2022/12/31 09:01:54;;;;;;;37.97;19.80;;;;;;;3.47;100.00;101956.63;4952152;28;20027;-73
2022/12/31 09:05:03;;;;;;;39.15;20.77;;;;;;;3.34;100.00;101950.41;4952119;28;20031;-73
2022/12/31 09:08:10;;;;;;;62.47;22.20;;;;;;;3.40;100.00;101943.31;4892174;29;20048;-73
2022/12/31 09:10:46;;;;;;;32.90;19.98;;;;;;;3.37;100.00;101935.34;4892579;29;20033;-73
2022/12/31 09:13:41;;;;;;;41.95;22.20;;;;;;;3.55;100.00;101945.41;4892361;29;20040;-74
2022/12/31 09:16:30;;;;;;;28.83;19.05;;;;;;;3.61;100.00;101947.63;4892291;29;20040;-73
2022/12/31 09:18:56;;;;;;;24.05;15.73;;;;;;;3.72;100.00;101935.03;4892363;29;20559;-74
2022/12/31 09:21:21;;;;;;;29.75;19.73;;;;;;;3.89;100.00;101935.66;4891673;29;20205;-74
2022/12/31 09:23:47;;;;;;;24.35;15.82;;;;;;;4.02;100.00;101935.94;4892740;29;20036;-73
2022/12/31 09:26:24;;;;;;;24.70;16.55;;;;;;;4.08;100.00;101934.69;4892493;29;20100;-74
2022/12/31 09:29:01;;;;;;;28.63;18.08;;;;;;;3.94;100.00;101913.94;4882960;29;20041;-75
2022/12/31 09:31:38;;;;;;;26.27;16.80;;;;;;;4.14;100.00;101927.56;4865893;29;20055;-74
2022/12/31 09:34:27;;;;;;;28.25;18.77;;;;;;;4.20;100.00;101935.75;4891690;29;20246;-74
2022/12/31 09:37:01;;;;;;;25.33;17.38;;;;;;;3.78;100.00;101849.50;4892073;29;20140;-76
2022/12/31 09:39:32;;;;;;;24.65;17.10;;;;;;;4.38;100.00;101928.75;4892011;29;20036;-75
2022/12/31 09:42:19;;;;;;;26.60;18.60;;;;;;;4.64;100.00;101918.19;4891272;29;20517;-75
2022/12/31 09:45:30;;;;;;;26.67;19.63;;;;;;;4.73;100.00;101924.84;4935821;28;20050;-74
2022/12/31 09:48:28;;;;;;;28.23;17.83;;;;;;;4.73;100.00;101932.53;4929398;29;20050;-74
2022/12/31 09:51:21;;;;;;;28.17;19.52;;;;;;;4.90;100.00;101916.00;4930166;29;20127;-74
2022/12/31 09:54:40;;;;;;;28.50;19.30;;;;;;;5.21;100.00;101910.84;4929355;29;20530;-75
2022/12/31 09:57:24;;;;;;;29.15;19.80;;;;;;;5.46;100.00;101916.31;4873299;29;20040;-75
2022/12/31 10:00:30;;;;;;;28.42;19.73;;;;;;;5.32;100.00;101905.84;4873425;29;20109;-74
2022/12/31 10:03:09;;;;;;;31.35;22.00;;;;;;;5.41;100.00;101890.34;4873705;29;20045;-74
2022/12/31 10:06:07;;;;;;;28.23;20.90;;;;;;;5.76;100.00;101896.50;4874252;29;20037;-75
2022/12/31 10:09:06;;;;;;;29.88;21.90;;;;;;;5.95;100.00;101891.16;4876961;29;20044;-75
2022/12/31 10:11:46;;;;;;;26.77;18.52;;;;;;;6.18;100.00;101887.84;4876404;29;20093;-74
2022/12/31 10:14:41;;;;;;;26.30;19.75;;;;;;;6.26;100.00;101881.63;4862735;29;20436;-74
2022/12/31 10:17:47;;;;;;;21.83;17.25;;;;;;;6.45;100.00;101881.38;4857832;29;20412;-73
2022/12/31 10:20:24;;;;;;;25.13;18.02;;;;;;;6.60;100.00;101873.97;4858303;29;20040;-73
2022/12/31 10:23:33;;;;;;;23.85;17.92;;;;;;;6.78;100.00;101869.31;4858356;29;20038;-71
2022/12/31 10:26:23;;;;;;;23.52;17.38;;;;;;;6.80;100.00;101872.91;4874932;29;20059;-75
2022/12/31 10:29:17;;;;;;;27.60;19.98;;;;;;;7.01;100.00;101876.94;4934333;29;20618;-72
2022/12/31 10:32:00;;;;;;;29.00;21.30;;;;;;;6.95;100.00;101829.50;4926189;29;20035;-71
2022/12/31 10:34:49;;;;;;;28.67;21.58;;;;;;;7.11;100.00;101849.47;4916697;29;20055;-73
2022/12/31 10:37:21;;;;;;;32.22;23.73;;;;;;;7.06;100.00;101831.94;4916225;29;20589;-73
2022/12/31 10:40:03;;;;;;;31.63;24.67;;;;;;;7.19;100.00;101824.38;4916631;29;20083;-73
2022/12/31 10:42:49;;;;;;;29.10;22.20;;;;;;;7.53;100.00;101856.72;4916274;29;20464;-72
2022/12/31 10:45:40;;;;;;;29.38;22.88;;;;;;;7.56;100.00;101852.72;4915794;29;20032;-73
2022/12/31 10:48:34;;;;;;;28.08;21.15;;;;;;;7.60;100.00;101836.72;4916739;29;20063;-73
2022/12/31 10:51:39;;;;;;;27.92;22.08;;;;;;;7.72;100.00;101849.53;4916741;29;20039;-73
2022/12/31 10:54:11;;;;;;;31.85;22.75;;;;;;;7.77;100.00;101837.00;4916132;29;20039;-76
2022/12/31 10:57:05;;;;;;;31.90;23.20;;;;;;;7.83;100.00;101847.72;4915961;29;20028;-75
2022/12/31 11:00:02;;;;;;;30.25;22.05;;;;;;;7.84;100.00;101835.75;4899135;29;20103;-74
2022/12/31 11:02:39;;;;;;;27.58;20.83;;;;;;;7.95;100.00;101839.97;4916193;29;20036;-74
2022/12/31 11:05:56;;;;;;;27.30;20.27;;;;;;;7.98;100.00;101831.59;4915475;29;20028;-74
2022/12/31 11:08:32;;;;;;;28.60;20.13;;;;;;;8.04;100.00;101822.59;4915860;29;20039;-76
2022/12/31 11:11:30;;;;;;;26.70;20.33;;;;;;;8.09;100.00;101825.50;4915972;29;20483;-76
2022/12/31 11:14:01;;;;;;;26.92;20.27;;;;;;;8.16;100.00;101826.81;4899028;29;20032;-77
2022/12/31 11:17:04;;;;;;;27.52;20.30;;;;;;;8.25;100.00;101830.03;4917681;29;20039;-73
2022/12/31 11:19:32;;;;;;;26.13;20.25;;;;;;;8.27;100.00;101820.72;4915159;29;20135;-73
2022/12/31 11:22:15;;;;;;;27.98;20.98;;;;;;;8.35;100.00;101816.06;4915728;29;20035;-71
2022/12/31 11:25:10;;;;;;;27.70;20.80;;;;;;;8.36;100.00;101805.91;4903928;29;20039;-71
2022/12/31 11:28:07;;;;;;;27.80;20.60;;;;;;;8.44;100.00;101821.84;4856373;29;20469;-70
2022/12/31 11:30:51;;;;;;;28.10;20.98;;;;;;;8.53;100.00;101816.47;4766086;30;20570;-71
2022/12/31 11:34:10;;;;;;;28.13;21.60;;;;;;;8.62;100.00;101814.50;4788234;29;20533;-72
2022/12/31 11:37:13;;;;;;;25.38;20.00;;;;;;;8.71;100.00;101809.97;4748540;30;20080;-72
2022/12/31 11:40:25;;;;;;;26.92;21.10;;;;;;;8.79;100.00;101805.31;4748511;30;20079;-72
2022/12/31 11:43:03;;;;;;;28.80;21.73;;;;;;;8.72;100.00;101773.13;4696064;30;20049;-72
2022/12/31 11:45:38;;;;;;;24.73;20.20;;;;;;;8.90;100.00;101800.88;4695785;30;20124;-77
2022/12/31 11:48:21;;;;;;;27.42;21.48;;;;;;;8.98;100.00;101806.53;4695930;30;20681;-75
2022/12/31 11:50:49;;;;;;;25.95;20.92;;;;;;;8.96;100.00;101802.94;4695625;30;20041;-76